Moraga, California
Current Conditions -  °F | °C
As of 1:53 PM on Thursday 23 Oct 2014 (Local Time) from KOAK Reporting Station
Broken Clouds Broken Clouds  
Wind Chill: 70°   Ceiling: 18000
Heat Index: 70°   Visibility: 10mi
Dew Point: 57°   Wind: 5mph
Humidity: 63%   Direction: 250°WSW
Pressure: 30.03"   Gusts: NA
Location:  37.83°N, 122.13°W
Report Text: KOAK 232053Z 25004KT 10SM FEW020 SCT160 BKN180 21/14 A3003 RMK AO2 SLP170 T02110139 58017 $
Loading
Personal Weather Stations






























Interactive Weather Map
Tropical Storm Tracking
New forecast layout! Learn more

10-Day Weather Forecast

Advertisements
Track Severe Weather on mobile